sensor_id;sensor_type;location;lat;lon;timestamp;pressure;altitude;pressure_sealevel;temperature
68939;BMP180;59064;45.294;11.816;2023-06-14T00:01:40;100849.00;;;17.90
68939;BMP180;59064;45.294;11.816;2023-06-14T00:04:05;100850.60;;;17.90
68939;BMP180;59064;45.294;11.816;2023-06-14T00:06:34;100848.00;;;17.90
68939;BMP180;59064;45.294;11.816;2023-06-14T00:08:59;100848.60;;;17.80
68939;BMP180;59064;45.294;11.816;2023-06-14T00:11:25;100847.80;;;17.80
68939;BMP180;59064;45.294;11.816;2023-06-14T00:13:52;100845.00;;;17.70
68939;BMP180;59064;45.294;11.816;2023-06-14T00:16:18;100842.80;;;17.70
68939;BMP180;59064;45.294;11.816;2023-06-14T00:18:45;100843.20;;;17.60
68939;BMP180;59064;45.294;11.816;2023-06-14T00:21:11;100838.40;;;17.60
68939;BMP180;59064;45.294;11.816;2023-06-14T00:23:37;100837.00;;;17.60
68939;BMP180;59064;45.294;11.816;2023-06-14T00:26:03;100842.80;;;17.70
68939;BMP180;59064;45.294;11.816;2023-06-14T00:28:29;100836.40;;;17.70
68939;BMP180;59064;45.294;11.816;2023-06-14T00:30:54;100829.80;;;17.70
68939;BMP180;59064;45.294;11.816;2023-06-14T00:33:20;100827.20;;;17.70
68939;BMP180;59064;45.294;11.816;2023-06-14T00:35:46;100818.20;;;17.70
68939;BMP180;59064;45.294;11.816;2023-06-14T00:38:12;100823.00;;;17.70
68939;BMP180;59064;45.294;11.816;2023-06-14T00:40:38;100818.60;;;17.70
68939;BMP180;59064;45.294;11.816;2023-06-14T00:43:04;100818.80;;;17.70
68939;BMP180;59064;45.294;11.816;2023-06-14T00:45:29;100819.00;;;17.70
68939;BMP180;59064;45.294;11.816;2023-06-14T00:47:56;100818.00;;;17.70
68939;BMP180;59064;45.294;11.816;2023-06-14T00:50:23;100815.00;;;17.70
68939;BMP180;59064;45.294;11.816;2023-06-14T00:52:49;100814.00;;;17.70
68939;BMP180;59064;45.294;11.816;2023-06-14T00:55:16;100815.00;;;17.70
68939;BMP180;59064;45.294;11.816;2023-06-14T00:57:42;100815.00;;;17.64
68939;BMP180;59064;45.294;11.816;2023-06-14T01:00:08;100815.20;;;17.60
68939;BMP180;59064;45.294;11.816;2023-06-14T01:02:38;100813.40;;;17.60
68939;BMP180;59064;45.294;11.816;2023-06-14T01:05:05;100816.40;;;17.60
68939;BMP180;59064;45.294;11.816;2023-06-14T01:10:47;100815.80;;;17.60
68939;BMP180;59064;45.294;11.816;2023-06-14T01:13:35;100811.00;;;17.60
68939;BMP180;59064;45.294;11.816;2023-06-14T01:16:02;100811.40;;;17.50
68939;BMP180;59064;45.294;11.816;2023-06-14T01:18:29;100810.60;;;17.50
68939;BMP180;59064;45.294;11.816;2023-06-14T01:20:55;100810.20;;;17.50
68939;BMP180;59064;45.294;11.816;2023-06-14T01:23:22;100802.60;;;17.50
68939;BMP180;59064;45.294;11.816;2023-06-14T01:25:48;100804.20;;;17.54
68939;BMP180;59064;45.294;11.816;2023-06-14T01:28:19;100805.00;;;17.60
68939;BMP180;59064;45.294;11.816;2023-06-14T01:30:48;100804.80;;;17.60
68939;BMP180;59064;45.294;11.816;2023-06-14T01:33:17;100800.60;;;17.60
68939;BMP180;59064;45.294;11.816;2023-06-14T01:35:47;100799.60;;;17.60
68939;BMP180;59064;45.294;11.816;2023-06-14T01:38:13;100798.40;;;17.60
68939;BMP180;59064;45.294;11.816;2023-06-14T01:40:40;100802.80;;;17.60
68939;BMP180;59064;45.294;11.816;2023-06-14T01:43:09;100804.80;;;17.60
68939;BMP180;59064;45.294;11.816;2023-06-14T01:45:36;100804.80;;;17.60
68939;BMP180;59064;45.294;11.816;2023-06-14T01:48:02;100805.40;;;17.64
68939;BMP180;59064;45.294;11.816;2023-06-14T01:50:32;100796.40;;;17.62
68939;BMP180;59064;45.294;11.816;2023-06-14T01:52:58;100792.00;;;17.60
68939;BMP180;59064;45.294;11.816;2023-06-14T01:55:23;100790.20;;;17.60
68939;BMP180;59064;45.294;11.816;2023-06-14T01:57:50;100790.20;;;17.66
68939;BMP180;59064;45.294;11.816;2023-06-14T02:00:17;100787.60;;;17.64
68939;BMP180;59064;45.294;11.816;2023-06-14T02:02:43;100791.20;;;17.60
68939;BMP180;59064;45.294;11.816;2023-06-14T02:05:09;100793.20;;;17.60
68939;BMP180;59064;45.294;11.816;2023-06-14T02:07:36;100794.40;;;17.60
68939;BMP180;59064;45.294;11.816;2023-06-14T02:10:03;100793.00;;;17.60
68939;BMP180;59064;45.294;11.816;2023-06-14T02:12:28;100795.80;;;17.60
68939;BMP180;59064;45.294;11.816;2023-06-14T02:14:54;100796.20;;;17.60
68939;BMP180;59064;45.294;11.816;2023-06-14T02:17:19;100790.60;;;17.60
68939;BMP180;59064;45.294;11.816;2023-06-14T02:19:45;100786.20;;;17.60
68939;BMP180;59064;45.294;11.816;2023-06-14T02:22:11;100788.60;;;17.54
68939;BMP180;59064;45.294;11.816;2023-06-14T02:24:37;100791.60;;;17.56
68939;BMP180;59064;45.294;11.816;2023-06-14T02:27:03;100790.20;;;17.52
68939;BMP180;59064;45.294;11.816;2023-06-14T02:29:29;100788.00;;;17.50
68939;BMP180;59064;45.294;11.816;2023-06-14T02:31:54;100784.00;;;17.50
68939;BMP180;59064;45.294;11.816;2023-06-14T02:34:20;100776.00;;;17.48
68939;BMP180;59064;45.294;11.816;2023-06-14T02:36:47;100775.20;;;17.40
68939;BMP180;59064;45.294;11.816;2023-06-14T02:39:13;100777.80;;;17.40
68939;BMP180;59064;45.294;11.816;2023-06-14T02:41:39;100770.00;;;17.40
68939;BMP180;59064;45.294;11.816;2023-06-14T02:44:06;100770.40;;;17.40
68939;BMP180;59064;45.294;11.816;2023-06-14T02:46:32;100774.00;;;17.30
68939;BMP180;59064;45.294;11.816;2023-06-14T02:48:58;100777.40;;;17.30
68939;BMP180;59064;45.294;11.816;2023-06-14T02:51:23;100774.60;;;17.20
68939;BMP180;59064;45.294;11.816;2023-06-14T02:53:49;100772.60;;;17.20
68939;BMP180;59064;45.294;11.816;2023-06-14T02:56:15;100772.60;;;17.20
68939;BMP180;59064;45.294;11.816;2023-06-14T02:58:42;100774.20;;;17.20
68939;BMP180;59064;45.294;11.816;2023-06-14T03:01:08;100773.00;;;17.18
68939;BMP180;59064;45.294;11.816;2023-06-14T03:03:38;100774.80;;;17.10
68939;BMP180;59064;45.294;11.816;2023-06-14T03:06:03;100776.20;;;17.10
68939;BMP180;59064;45.294;11.816;2023-06-14T03:08:33;100773.80;;;17.10
68939;BMP180;59064;45.294;11.816;2023-06-14T03:11:04;100773.20;;;17.10
68939;BMP180;59064;45.294;11.816;2023-06-14T03:13:30;100769.80;;;17.10
68939;BMP180;59064;45.294;11.816;2023-06-14T03:15:57;100769.20;;;17.10
68939;BMP180;59064;45.294;11.816;2023-06-14T03:18:23;100771.00;;;17.10
68939;BMP180;59064;45.294;11.816;2023-06-14T03:20:48;100766.40;;;17.10
68939;BMP180;59064;45.294;11.816;2023-06-14T03:23:16;100769.20;;;17.10
68939;BMP180;59064;45.294;11.816;2023-06-14T03:25:41;100768.40;;;17.10
68939;BMP180;59064;45.294;11.816;2023-06-14T03:28:07;100767.00;;;17.10
68939;BMP180;59064;45.294;11.816;2023-06-14T03:30:33;100769.80;;;17.10
68939;BMP180;59064;45.294;11.816;2023-06-14T03:32:59;100770.60;;;17.10
68939;BMP180;59064;45.294;11.816;2023-06-14T03:35:28;100771.40;;;17.10
68939;BMP180;59064;45.294;11.816;2023-06-14T03:37:54;100775.40;;;17.10
68939;BMP180;59064;45.294;11.816;2023-06-14T03:40:20;100776.40;;;17.14
68939;BMP180;59064;45.294;11.816;2023-06-14T03:42:46;100773.00;;;17.16
68939;BMP180;59064;45.294;11.816;2023-06-14T03:45:12;100781.80;;;17.20
68939;BMP180;59064;45.294;11.816;2023-06-14T03:47:37;100775.40;;;17.20
68939;BMP180;59064;45.294;11.816;2023-06-14T03:50:04;100774.40;;;17.30
68939;BMP180;59064;45.294;11.816;2023-06-14T03:52:30;100775.60;;;17.30
68939;BMP180;59064;45.294;11.816;2023-06-14T03:54:56;100774.20;;;17.40
68939;BMP180;59064;45.294;11.816;2023-06-14T03:57:23;100771.40;;;17.40
68939;BMP180;59064;45.294;11.816;2023-06-14T03:59:48;100772.00;;;17.50
68939;BMP180;59064;45.294;11.816;2023-06-14T04:02:15;100770.00;;;17.60
68939;BMP180;59064;45.294;11.816;2023-06-14T04:04:41;100767.80;;;17.60
68939;BMP180;59064;45.294;11.816;2023-06-14T04:07:12;100769.80;;;17.70
68939;BMP180;59064;45.294;11.816;2023-06-14T04:09:40;100772.80;;;17.70
68939;BMP180;59064;45.294;11.816;2023-06-14T04:12:06;100778.80;;;17.70
68939;BMP180;59064;45.294;11.816;2023-06-14T04:14:34;100780.80;;;17.70
68939;BMP180;59064;45.294;11.816;2023-06-14T04:16:59;100788.00;;;17.70
68939;BMP180;59064;45.294;11.816;2023-06-14T04:19:25;100788.60;;;17.80
68939;BMP180;59064;45.294;11.816;2023-06-14T04:21:51;100791.00;;;17.90
68939;BMP180;59064;45.294;11.816;2023-06-14T04:24:16;100793.00;;;18.00
68939;BMP180;59064;45.294;11.816;2023-06-14T04:26:43;100795.20;;;18.10
68939;BMP180;59064;45.294;11.816;2023-06-14T04:29:17;100795.80;;;18.10
68939;BMP180;59064;45.294;11.816;2023-06-14T04:31:45;100799.40;;;18.12
68939;BMP180;59064;45.294;11.816;2023-06-14T04:34:12;100799.20;;;18.20
68939;BMP180;59064;45.294;11.816;2023-06-14T04:36:44;100800.20;;;18.20
68939;BMP180;59064;45.294;11.816;2023-06-14T04:39:22;100803.80;;;18.28
68939;BMP180;59064;45.294;11.816;2023-06-14T04:41:48;100803.40;;;18.38
68939;BMP180;59064;45.294;11.816;2023-06-14T04:44:18;100812.60;;;18.50
68939;BMP180;59064;45.294;11.816;2023-06-14T04:46:45;100807.60;;;18.70
68939;BMP180;59064;45.294;11.816;2023-06-14T04:49:17;100809.40;;;18.90
68939;BMP180;59064;45.294;11.816;2023-06-14T04:51:43;100811.60;;;19.10
68939;BMP180;59064;45.294;11.816;2023-06-14T04:54:10;100808.80;;;19.20
68939;BMP180;59064;45.294;11.816;2023-06-14T04:56:40;100801.40;;;19.34
68939;BMP180;59064;45.294;11.816;2023-06-14T04:59:05;100806.80;;;19.46
68939;BMP180;59064;45.294;11.816;2023-06-14T05:01:32;100811.40;;;19.60
68939;BMP180;59064;45.294;11.816;2023-06-14T05:03:58;100812.20;;;19.70
68939;BMP180;59064;45.294;11.816;2023-06-14T05:06:24;100813.60;;;19.78
68939;BMP180;59064;45.294;11.816;2023-06-14T05:08:49;100813.80;;;19.88
68939;BMP180;59064;45.294;11.816;2023-06-14T05:11:16;100811.00;;;19.90
68939;BMP180;59064;45.294;11.816;2023-06-14T05:13:42;100813.60;;;20.00
68939;BMP180;59064;45.294;11.816;2023-06-14T05:16:08;100818.80;;;20.10
68939;BMP180;59064;45.294;11.816;2023-06-14T05:18:34;100819.60;;;20.24
68939;BMP180;59064;45.294;11.816;2023-06-14T05:21:01;100822.60;;;20.40
68939;BMP180;59064;45.294;11.816;2023-06-14T05:23:27;100823.20;;;20.30
68939;BMP180;59064;45.294;11.816;2023-06-14T05:25:52;100827.40;;;20.30
68939;BMP180;59064;45.294;11.816;2023-06-14T05:28:18;100831.40;;;20.20
68939;BMP180;59064;45.294;11.816;2023-06-14T05:30:44;100830.40;;;20.20
68939;BMP180;59064;45.294;11.816;2023-06-14T05:33:09;100832.40;;;20.20
68939;BMP180;59064;45.294;11.816;2023-06-14T05:35:35;100836.60;;;20.20
68939;BMP180;59064;45.294;11.816;2023-06-14T05:38:00;100838.60;;;20.20
68939;BMP180;59064;45.294;11.816;2023-06-14T05:40:26;100844.80;;;20.30
68939;BMP180;59064;45.294;11.816;2023-06-14T05:42:52;100838.00;;;20.30
68939;BMP180;59064;45.294;11.816;2023-06-14T05:45:17;100834.00;;;20.30
68939;BMP180;59064;45.294;11.816;2023-06-14T05:47:43;100836.40;;;20.30
68939;BMP180;59064;45.294;11.816;2023-06-14T05:50:09;100838.80;;;20.34
68939;BMP180;59064;45.294;11.816;2023-06-14T05:52:35;100840.80;;;20.40
68939;BMP180;59064;45.294;11.816;2023-06-14T05:55:04;100845.60;;;20.50
68939;BMP180;59064;45.294;11.816;2023-06-14T05:57:30;100850.00;;;20.60
68939;BMP180;59064;45.294;11.816;2023-06-14T05:59:56;100846.80;;;20.80
68939;BMP180;59064;45.294;11.816;2023-06-14T06:02:21;100848.80;;;20.86
68939;BMP180;59064;45.294;11.816;2023-06-14T06:04:47;100846.60;;;20.90
68939;BMP180;59064;45.294;11.816;2023-06-14T06:07:12;100854.60;;;21.10
68939;BMP180;59064;45.294;11.816;2023-06-14T06:09:38;100855.80;;;21.38
68939;BMP180;59064;45.294;11.816;2023-06-14T06:12:06;100861.80;;;21.60
68939;BMP180;59064;45.294;11.816;2023-06-14T06:14:32;100865.20;;;21.76
68939;BMP180;59064;45.294;11.816;2023-06-14T06:16:58;100861.00;;;21.82
68939;BMP180;59064;45.294;11.816;2023-06-14T06:19:24;100856.40;;;21.90
68939;BMP180;59064;45.294;11.816;2023-06-14T06:21:50;100855.40;;;21.90
68939;BMP180;59064;45.294;11.816;2023-06-14T06:24:15;100854.80;;;21.94
68939;BMP180;59064;45.294;11.816;2023-06-14T06:26:41;100855.60;;;22.00
68939;BMP180;59064;45.294;11.816;2023-06-14T06:29:07;100861.40;;;22.00
68939;BMP180;59064;45.294;11.816;2023-06-14T06:31:32;100860.60;;;22.08
68939;BMP180;59064;45.294;11.816;2023-06-14T06:33:58;100862.20;;;22.20
68939;BMP180;59064;45.294;11.816;2023-06-14T06:36:24;100864.00;;;22.20
68939;BMP180;59064;45.294;11.816;2023-06-14T06:38:50;100869.40;;;22.26
68939;BMP180;59064;45.294;11.816;2023-06-14T06:41:15;100875.00;;;22.30
68939;BMP180;59064;45.294;11.816;2023-06-14T06:43:41;100876.20;;;22.30
68939;BMP180;59064;45.294;11.816;2023-06-14T06:46:07;100883.80;;;22.40
68939;BMP180;59064;45.294;11.816;2023-06-14T06:48:33;100886.00;;;22.50
68939;BMP180;59064;45.294;11.816;2023-06-14T06:50:58;100879.00;;;22.60
68939;BMP180;59064;45.294;11.816;2023-06-14T06:53:24;100880.80;;;22.80
68939;BMP180;59064;45.294;11.816;2023-06-14T06:55:49;100879.40;;;23.00
68939;BMP180;59064;45.294;11.816;2023-06-14T06:58:15;100880.20;;;23.20
68939;BMP180;59064;45.294;11.816;2023-06-14T07:00:40;100886.00;;;23.30
68939;BMP180;59064;45.294;11.816;2023-06-14T07:03:06;100884.80;;;23.30
68939;BMP180;59064;45.294;11.816;2023-06-14T07:05:32;100890.60;;;23.38
68939;BMP180;59064;45.294;11.816;2023-06-14T07:07:57;100878.00;;;23.44
68939;BMP180;59064;45.294;11.816;2023-06-14T07:10:24;100881.60;;;23.50
68939;BMP180;59064;45.294;11.816;2023-06-14T07:12:52;100875.20;;;23.64
68939;BMP180;59064;45.294;11.816;2023-06-14T07:15:18;100880.60;;;23.60
68939;BMP180;59064;45.294;11.816;2023-06-14T07:17:43;100878.20;;;23.50
68939;BMP180;59064;45.294;11.816;2023-06-14T07:20:09;100881.40;;;23.60
68939;BMP180;59064;45.294;11.816;2023-06-14T07:22:42;100877.00;;;23.70
68939;BMP180;59064;45.294;11.816;2023-06-14T07:25:09;100877.40;;;23.60
68939;BMP180;59064;45.294;11.816;2023-06-14T07:27:35;100878.20;;;23.76
68939;BMP180;59064;45.294;11.816;2023-06-14T07:30:00;100883.60;;;23.80
68939;BMP180;59064;45.294;11.816;2023-06-14T07:32:26;100883.20;;;23.88
68939;BMP180;59064;45.294;11.816;2023-06-14T07:34:51;100887.80;;;23.90
68939;BMP180;59064;45.294;11.816;2023-06-14T07:37:17;100891.40;;;23.90
68939;BMP180;59064;45.294;11.816;2023-06-14T07:39:43;100891.80;;;23.96
68939;BMP180;59064;45.294;11.816;2023-06-14T07:42:08;100891.80;;;23.90
68939;BMP180;59064;45.294;11.816;2023-06-14T07:44:34;100891.40;;;23.98
68939;BMP180;59064;45.294;11.816;2023-06-14T07:47:00;100892.00;;;23.90
68939;BMP180;59064;45.294;11.816;2023-06-14T07:49:26;100890.20;;;23.90
68939;BMP180;59064;45.294;11.816;2023-06-14T07:51:52;100890.80;;;24.00
68939;BMP180;59064;45.294;11.816;2023-06-14T07:54:19;100886.00;;;24.10
68939;BMP180;59064;45.294;11.816;2023-06-14T07:56:45;100891.60;;;24.18
68939;BMP180;59064;45.294;11.816;2023-06-14T07:59:11;100887.40;;;24.20
68939;BMP180;59064;45.294;11.816;2023-06-14T08:01:36;100887.60;;;24.20
68939;BMP180;59064;45.294;11.816;2023-06-14T08:04:02;100892.20;;;24.20
68939;BMP180;59064;45.294;11.816;2023-06-14T08:06:28;100893.80;;;24.30
68939;BMP180;59064;45.294;11.816;2023-06-14T08:08:53;100895.80;;;24.46
68939;BMP180;59064;45.294;11.816;2023-06-14T08:11:19;100890.20;;;24.60
68939;BMP180;59064;45.294;11.816;2023-06-14T08:13:44;100887.20;;;24.70
68939;BMP180;59064;45.294;11.816;2023-06-14T08:16:10;100893.20;;;24.90
68939;BMP180;59064;45.294;11.816;2023-06-14T08:18:36;100884.40;;;24.96
68939;BMP180;59064;45.294;11.816;2023-06-14T08:21:01;100893.40;;;25.00
68939;BMP180;59064;45.294;11.816;2023-06-14T08:23:28;100891.80;;;25.20
68939;BMP180;59064;45.294;11.816;2023-06-14T08:25:54;100901.40;;;25.34
68939;BMP180;59064;45.294;11.816;2023-06-14T08:28:20;100898.20;;;25.56
68939;BMP180;59064;45.294;11.816;2023-06-14T08:30:45;100910.00;;;25.50
68939;BMP180;59064;45.294;11.816;2023-06-14T08:33:11;100911.00;;;25.70
68939;BMP180;59064;45.294;11.816;2023-06-14T08:35:36;100911.60;;;25.70
68939;BMP180;59064;45.294;11.816;2023-06-14T08:38:03;100913.40;;;25.78
68939;BMP180;59064;45.294;11.816;2023-06-14T08:40:30;100909.00;;;25.64
68939;BMP180;59064;45.294;11.816;2023-06-14T08:42:56;100907.00;;;25.50
68939;BMP180;59064;45.294;11.816;2023-06-14T08:45:23;100909.60;;;25.40
68939;BMP180;59064;45.294;11.816;2023-06-14T08:47:53;100907.20;;;25.30
68939;BMP180;59064;45.294;11.816;2023-06-14T08:50:23;100913.40;;;25.30
68939;BMP180;59064;45.294;11.816;2023-06-14T08:52:54;100917.00;;;25.60
68939;BMP180;59064;45.294;11.816;2023-06-14T08:55:22;100905.00;;;25.70
68939;BMP180;59064;45.294;11.816;2023-06-14T08:57:51;100916.80;;;25.70
68939;BMP180;59064;45.294;11.816;2023-06-14T09:00:20;100920.20;;;25.90
68939;BMP180;59064;45.294;11.816;2023-06-14T09:02:46;100920.20;;;26.06
68939;BMP180;59064;45.294;11.816;2023-06-14T09:05:12;100922.40;;;26.00
68939;BMP180;59064;45.294;11.816;2023-06-14T09:07:44;100922.40;;;26.10
68939;BMP180;59064;45.294;11.816;2023-06-14T09:10:12;100921.80;;;26.20
68939;BMP180;59064;45.294;11.816;2023-06-14T09:12:39;100923.00;;;26.10
68939;BMP180;59064;45.294;11.816;2023-06-14T09:15:05;100924.20;;;26.10
68939;BMP180;59064;45.294;11.816;2023-06-14T09:17:35;100930.60;;;26.30
68939;BMP180;59064;45.294;11.816;2023-06-14T09:20:05;100934.00;;;26.30
68939;BMP180;59064;45.294;11.816;2023-06-14T09:22:32;100926.60;;;26.50
68939;BMP180;59064;45.294;11.816;2023-06-14T09:24:58;100928.40;;;26.86
68939;BMP180;59064;45.294;11.816;2023-06-14T09:27:25;100931.20;;;26.90
68939;BMP180;59064;45.294;11.816;2023-06-14T09:29:52;100926.20;;;27.00
68939;BMP180;59064;45.294;11.816;2023-06-14T09:32:18;100930.80;;;27.10
68939;BMP180;59064;45.294;11.816;2023-06-14T09:34:44;100927.20;;;27.12
68939;BMP180;59064;45.294;11.816;2023-06-14T09:37:10;100923.40;;;27.20
68939;BMP180;59064;45.294;11.816;2023-06-14T09:39:38;100922.40;;;27.30
68939;BMP180;59064;45.294;11.816;2023-06-14T09:42:17;100927.40;;;27.28
68939;BMP180;59064;45.294;11.816;2023-06-14T09:44:47;100929.20;;;27.14
68939;BMP180;59064;45.294;11.816;2023-06-14T09:47:13;100926.60;;;27.20
68939;BMP180;59064;45.294;11.816;2023-06-14T09:49:39;100921.60;;;27.24
68939;BMP180;59064;45.294;11.816;2023-06-14T09:52:06;100928.40;;;27.26
68939;BMP180;59064;45.294;11.816;2023-06-14T09:54:33;100925.60;;;27.40
68939;BMP180;59064;45.294;11.816;2023-06-14T09:57:02;100914.00;;;27.58
68939;BMP180;59064;45.294;11.816;2023-06-14T09:59:30;100914.20;;;27.50
68939;BMP180;59064;45.294;11.816;2023-06-14T10:02:07;100922.40;;;27.50
68939;BMP180;59064;45.294;11.816;2023-06-14T10:04:34;100927.00;;;27.66
68939;BMP180;59064;45.294;11.816;2023-06-14T10:07:00;100925.60;;;27.70
68939;BMP180;59064;45.294;11.816;2023-06-14T10:09:28;100918.20;;;27.72
68939;BMP180;59064;45.294;11.816;2023-06-14T10:11:55;100914.20;;;27.60
68939;BMP180;59064;45.294;11.816;2023-06-14T10:14:21;100913.80;;;27.40
68939;BMP180;59064;45.294;11.816;2023-06-14T10:17:10;100918.20;;;27.22
68939;BMP180;59064;45.294;11.816;2023-06-14T10:19:46;100910.00;;;27.40
68939;BMP180;59064;45.294;11.816;2023-06-14T10:22:25;100910.60;;;27.58
68939;BMP180;59064;45.294;11.816;2023-06-14T10:24:53;100912.20;;;27.92
68939;BMP180;59064;45.294;11.816;2023-06-14T10:27:18;100910.00;;;28.10
68939;BMP180;59064;45.294;11.816;2023-06-14T10:32:24;100904.00;;;28.92
68939;BMP180;59064;45.294;11.816;2023-06-14T10:34:58;100902.80;;;28.80
68939;BMP180;59064;45.294;11.816;2023-06-14T10:37:24;100901.80;;;28.86
68939;BMP180;59064;45.294;11.816;2023-06-14T10:39:50;100909.80;;;29.44
68939;BMP180;59064;45.294;11.816;2023-06-14T10:42:16;100907.40;;;29.50
68939;BMP180;59064;45.294;11.816;2023-06-14T10:44:57;100896.20;;;29.28
68939;BMP180;59064;45.294;11.816;2023-06-14T10:47:27;100903.00;;;28.80
68939;BMP180;59064;45.294;11.816;2023-06-14T10:49:53;100897.20;;;28.50
68939;BMP180;59064;45.294;11.816;2023-06-14T10:52:25;100894.60;;;28.60
68939;BMP180;59064;45.294;11.816;2023-06-14T10:57:39;100898.40;;;28.60
68939;BMP180;59064;45.294;11.816;2023-06-14T11:00:06;100900.40;;;28.70
68939;BMP180;59064;45.294;11.816;2023-06-14T11:02:58;100895.20;;;28.60
68939;BMP180;59064;45.294;11.816;2023-06-14T11:05:30;100903.40;;;29.02
68939;BMP180;59064;45.294;11.816;2023-06-14T11:10:38;100895.80;;;29.90
68939;BMP180;59064;45.294;11.816;2023-06-14T11:13:05;100897.80;;;30.04
68939;BMP180;59064;45.294;11.816;2023-06-14T11:15:35;100896.80;;;29.46
68939;BMP180;59064;45.294;11.816;2023-06-14T11:18:07;100888.80;;;28.84
68939;BMP180;59064;45.294;11.816;2023-06-14T11:20:34;100887.00;;;28.34
68939;BMP180;59064;45.294;11.816;2023-06-14T11:23:03;100888.20;;;27.90
68939;BMP180;59064;45.294;11.816;2023-06-14T11:25:29;100881.40;;;28.02
68939;BMP180;59064;45.294;11.816;2023-06-14T11:27:56;100871.80;;;28.34
68939;BMP180;59064;45.294;11.816;2023-06-14T11:30:23;100876.00;;;28.46
68939;BMP180;59064;45.294;11.816;2023-06-14T11:32:50;100882.40;;;28.40
68939;BMP180;59064;45.294;11.816;2023-06-14T11:35:16;100872.80;;;28.64
68939;BMP180;59064;45.294;11.816;2023-06-14T11:37:42;100870.40;;;29.20
68939;BMP180;59064;45.294;11.816;2023-06-14T11:40:10;100875.00;;;28.80
68939;BMP180;59064;45.294;11.816;2023-06-14T11:42:37;100877.00;;;28.50
68939;BMP180;59064;45.294;11.816;2023-06-14T11:45:05;100870.60;;;28.20
68939;BMP180;59064;45.294;11.816;2023-06-14T11:47:33;100858.20;;;28.20
68939;BMP180;59064;45.294;11.816;2023-06-14T11:50:03;100855.40;;;28.44
68939;BMP180;59064;45.294;11.816;2023-06-14T11:52:29;100849.20;;;28.90
68939;BMP180;59064;45.294;11.816;2023-06-14T11:54:55;100846.20;;;29.38
68939;BMP180;59064;45.294;11.816;2023-06-14T11:57:21;100842.80;;;29.72
68939;BMP180;59064;45.294;11.816;2023-06-14T11:59:47;100838.40;;;29.28
68939;BMP180;59064;45.294;11.816;2023-06-14T12:02:16;100841.00;;;28.80
68939;BMP180;59064;45.294;11.816;2023-06-14T12:04:43;100843.00;;;28.40
68939;BMP180;59064;45.294;11.816;2023-06-14T12:07:10;100837.80;;;28.86
68939;BMP180;59064;45.294;11.816;2023-06-14T12:12:26;100837.40;;;29.60
68939;BMP180;59064;45.294;11.816;2023-06-14T12:14:53;100843.00;;;29.50
68939;BMP180;59064;45.294;11.816;2023-06-14T12:17:19;100833.40;;;29.52
68939;BMP180;59064;45.294;11.816;2023-06-14T12:19:46;100827.60;;;29.72
68939;BMP180;59064;45.294;11.816;2023-06-14T12:22:15;100835.20;;;29.54
68939;BMP180;59064;45.294;11.816;2023-06-14T12:24:44;100832.40;;;29.68
68939;BMP180;59064;45.294;11.816;2023-06-14T12:27:11;100829.60;;;30.08
68939;BMP180;59064;45.294;11.816;2023-06-14T12:29:43;100827.60;;;30.10
68939;BMP180;59064;45.294;11.816;2023-06-14T12:32:09;100820.80;;;30.00
68939;BMP180;59064;45.294;11.816;2023-06-14T12:34:35;100820.00;;;29.70
68939;BMP180;59064;45.294;11.816;2023-06-14T12:37:01;100824.20;;;29.88
68939;BMP180;59064;45.294;11.816;2023-06-14T12:39:26;100825.60;;;30.30
68939;BMP180;59064;45.294;11.816;2023-06-14T12:41:53;100828.80;;;30.52
68939;BMP180;59064;45.294;11.816;2023-06-14T12:44:19;100824.20;;;30.60
68939;BMP180;59064;45.294;11.816;2023-06-14T12:46:45;100826.20;;;30.56
68939;BMP180;59064;45.294;11.816;2023-06-14T12:49:11;100826.80;;;30.64
68939;BMP180;59064;45.294;11.816;2023-06-14T12:51:38;100822.60;;;30.70
68939;BMP180;59064;45.294;11.816;2023-06-14T12:54:04;100830.20;;;30.60
68939;BMP180;59064;45.294;11.816;2023-06-14T12:56:29;100822.60;;;30.42
68939;BMP180;59064;45.294;11.816;2023-06-14T12:58:55;100821.80;;;30.40
68939;BMP180;59064;45.294;11.816;2023-06-14T13:01:21;100823.00;;;30.64
68939;BMP180;59064;45.294;11.816;2023-06-14T13:03:47;100823.20;;;30.90
68939;BMP180;59064;45.294;11.816;2023-06-14T13:06:13;100824.80;;;31.30
68939;BMP180;59064;45.294;11.816;2023-06-14T13:08:38;100822.40;;;31.52
68939;BMP180;59064;45.294;11.816;2023-06-14T13:11:04;100823.40;;;31.70
68939;BMP180;59064;45.294;11.816;2023-06-14T13:13:29;100819.00;;;31.70
68939;BMP180;59064;45.294;11.816;2023-06-14T13:15:55;100821.40;;;31.88
68939;BMP180;59064;45.294;11.816;2023-06-14T13:18:21;100816.80;;;31.76
68939;BMP180;59064;45.294;11.816;2023-06-14T13:20:47;100822.40;;;31.66
68939;BMP180;59064;45.294;11.816;2023-06-14T13:23:13;100825.40;;;31.60
68939;BMP180;59064;45.294;11.816;2023-06-14T13:25:39;100825.20;;;31.76
68939;BMP180;59064;45.294;11.816;2023-06-14T13:28:05;100825.60;;;31.94
68939;BMP180;59064;45.294;11.816;2023-06-14T13:30:32;100828.60;;;32.18
68939;BMP180;59064;45.294;11.816;2023-06-14T13:32:58;100829.00;;;32.76
68939;BMP180;59064;45.294;11.816;2023-06-14T13:35:24;100827.20;;;32.82
68939;BMP180;59064;45.294;11.816;2023-06-14T13:37:50;100836.40;;;32.98
68939;BMP180;59064;45.294;11.816;2023-06-14T13:40:16;100829.40;;;33.44
68939;BMP180;59064;45.294;11.816;2023-06-14T13:42:41;100824.40;;;33.80
68939;BMP180;59064;45.294;11.816;2023-06-14T13:45:08;100824.20;;;33.74
68939;BMP180;59064;45.294;11.816;2023-06-14T13:47:34;100827.60;;;33.70
68939;BMP180;59064;45.294;11.816;2023-06-14T13:49:59;100828.60;;;33.80
68939;BMP180;59064;45.294;11.816;2023-06-14T13:52:25;100827.40;;;33.44
68939;BMP180;59064;45.294;11.816;2023-06-14T13:54:51;100826.40;;;33.04
68939;BMP180;59064;45.294;11.816;2023-06-14T13:57:17;100820.20;;;32.90